sensor_id;sensor_type;location;lat;lon;timestamp;temperature;humidity
12588;DHT22;6359;51.450;7.346;2023-04-06T00:00:48;-1.00;99.90
12588;DHT22;6359;51.450;7.346;2023-04-06T00:03:17;-1.00;99.90
12588;DHT22;6359;51.450;7.346;2023-04-06T00:05:44;-1.10;99.90
12588;DHT22;6359;51.450;7.346;2023-04-06T00:08:11;-1.10;99.90
12588;DHT22;6359;51.450;7.346;2023-04-06T00:10:38;-1.20;99.90
12588;DHT22;6359;51.450;7.346;2023-04-06T00:13:06;-1.10;99.90
12588;DHT22;6359;51.450;7.346;2023-04-06T00:15:33;-1.10;99.90
12588;DHT22;6359;51.450;7.346;2023-04-06T00:18:00;-1.10;99.90
12588;DHT22;6359;51.450;7.346;2023-04-06T00:20:29;-1.10;99.90
12588;DHT22;6359;51.450;7.346;2023-04-06T00:22:57;-1.10;99.90
12588;DHT22;6359;51.450;7.346;2023-04-06T00:25:24;-1.20;99.90
12588;DHT22;6359;51.450;7.346;2023-04-06T00:27:51;-1.20;99.90
12588;DHT22;6359;51.450;7.346;2023-04-06T00:30:18;-1.20;99.90
12588;DHT22;6359;51.450;7.346;2023-04-06T00:32:45;-1.20;99.90
12588;DHT22;6359;51.450;7.346;2023-04-06T00:35:12;-1.30;99.90
12588;DHT22;6359;51.450;7.346;2023-04-06T00:37:42;-1.30;99.90
12588;DHT22;6359;51.450;7.346;2023-04-06T00:40:10;-1.30;99.90
12588;DHT22;6359;51.450;7.346;2023-04-06T00:42:37;-1.30;99.90
12588;DHT22;6359;51.450;7.346;2023-04-06T00:45:05;-1.40;99.90
12588;DHT22;6359;51.450;7.346;2023-04-06T00:47:33;-1.50;99.90
12588;DHT22;6359;51.450;7.346;2023-04-06T00:50:00;-1.50;99.90
12588;DHT22;6359;51.450;7.346;2023-04-06T00:52:27;-1.50;99.90
12588;DHT22;6359;51.450;7.346;2023-04-06T00:54:56;-1.50;99.90
12588;DHT22;6359;51.450;7.346;2023-04-06T00:57:23;-1.40;99.90
12588;DHT22;6359;51.450;7.346;2023-04-06T00:59:52;-1.40;99.90
12588;DHT22;6359;51.450;7.346;2023-04-06T01:02:19;-1.50;99.90
12588;DHT22;6359;51.450;7.346;2023-04-06T01:04:46;-1.50;99.90
12588;DHT22;6359;51.450;7.346;2023-04-06T01:07:13;-1.60;99.90
12588;DHT22;6359;51.450;7.346;2023-04-06T01:09:41;-1.50;99.90
12588;DHT22;6359;51.450;7.346;2023-04-06T01:12:09;-1.50;99.90
12588;DHT22;6359;51.450;7.346;2023-04-06T01:14:36;-1.50;99.90
12588;DHT22;6359;51.450;7.346;2023-04-06T01:17:04;-1.50;99.90
12588;DHT22;6359;51.450;7.346;2023-04-06T01:19:31;-1.50;99.90
12588;DHT22;6359;51.450;7.346;2023-04-06T01:21:58;-1.50;99.90
12588;DHT22;6359;51.450;7.346;2023-04-06T01:24:27;-1.50;99.90
12588;DHT22;6359;51.450;7.346;2023-04-06T01:26:54;-1.50;99.90
12588;DHT22;6359;51.450;7.346;2023-04-06T01:29:22;-1.50;99.90
12588;DHT22;6359;51.450;7.346;2023-04-06T01:31:49;-1.40;99.90
12588;DHT22;6359;51.450;7.346;2023-04-06T01:34:16;-1.40;99.90
12588;DHT22;6359;51.450;7.346;2023-04-06T01:36:43;-1.40;99.90
12588;DHT22;6359;51.450;7.346;2023-04-06T01:39:10;-1.40;99.90
12588;DHT22;6359;51.450;7.346;2023-04-06T01:41:39;-1.40;99.90
12588;DHT22;6359;51.450;7.346;2023-04-06T01:44:06;-1.50;99.90
12588;DHT22;6359;51.450;7.346;2023-04-06T01:46:33;-1.50;99.90
12588;DHT22;6359;51.450;7.346;2023-04-06T01:49:01;-1.60;99.90
12588;DHT22;6359;51.450;7.346;2023-04-06T01:51:28;-1.50;99.90
12588;DHT22;6359;51.450;7.346;2023-04-06T01:53:55;-1.50;99.90
12588;DHT22;6359;51.450;7.346;2023-04-06T01:56:22;-1.60;99.90
12588;DHT22;6359;51.450;7.346;2023-04-06T01:58:51;-1.50;99.90
12588;DHT22;6359;51.450;7.346;2023-04-06T02:01:18;-1.50;99.90
12588;DHT22;6359;51.450;7.346;2023-04-06T02:03:45;-1.50;99.90
12588;DHT22;6359;51.450;7.346;2023-04-06T02:06:12;-1.50;99.90
12588;DHT22;6359;51.450;7.346;2023-04-06T02:08:39;-1.50;99.90
12588;DHT22;6359;51.450;7.346;2023-04-06T02:11:07;-1.40;99.90
12588;DHT22;6359;51.450;7.346;2023-04-06T02:13:34;-1.40;99.90
12588;DHT22;6359;51.450;7.346;2023-04-06T02:16:03;-1.20;99.90
12588;DHT22;6359;51.450;7.346;2023-04-06T02:18:30;-1.10;99.90
12588;DHT22;6359;51.450;7.346;2023-04-06T02:20:57;-1.10;99.90
12588;DHT22;6359;51.450;7.346;2023-04-06T02:23:24;-1.00;99.90
12588;DHT22;6359;51.450;7.346;2023-04-06T02:25:52;-0.90;99.90
12588;DHT22;6359;51.450;7.346;2023-04-06T02:28:19;-0.80;99.90
12588;DHT22;6359;51.450;7.346;2023-04-06T02:30:46;-0.70;99.90
12588;DHT22;6359;51.450;7.346;2023-04-06T02:33:15;-0.70;99.90
12588;DHT22;6359;51.450;7.346;2023-04-06T02:35:43;-0.70;99.90
12588;DHT22;6359;51.450;7.346;2023-04-06T02:38:11;-0.50;99.90
12588;DHT22;6359;51.450;7.346;2023-04-06T02:40:38;-0.60;99.90
12588;DHT22;6359;51.450;7.346;2023-04-06T02:43:05;-0.60;99.90
12588;DHT22;6359;51.450;7.346;2023-04-06T02:45:32;-0.50;99.90
12588;DHT22;6359;51.450;7.346;2023-04-06T02:47:59;-0.50;99.90
12588;DHT22;6359;51.450;7.346;2023-04-06T02:50:28;-0.60;99.90
12588;DHT22;6359;51.450;7.346;2023-04-06T02:52:55;-0.70;99.90
12588;DHT22;6359;51.450;7.346;2023-04-06T02:55:22;-0.80;99.90
12588;DHT22;6359;51.450;7.346;2023-04-06T02:57:49;-0.90;99.90
12588;DHT22;6359;51.450;7.346;2023-04-06T03:00:17;-0.90;99.90
12588;DHT22;6359;51.450;7.346;2023-04-06T03:02:44;-0.90;99.90
12588;DHT22;6359;51.450;7.346;2023-04-06T03:05:11;-1.00;99.90
12588;DHT22;6359;51.450;7.346;2023-04-06T03:07:40;-0.90;99.90
12588;DHT22;6359;51.450;7.346;2023-04-06T03:10:08;-0.90;99.90
12588;DHT22;6359;51.450;7.346;2023-04-06T03:12:35;-1.00;99.90
12588;DHT22;6359;51.450;7.346;2023-04-06T03:15:03;-0.90;99.90
12588;DHT22;6359;51.450;7.346;2023-04-06T03:17:30;-1.00;99.90
12588;DHT22;6359;51.450;7.346;2023-04-06T03:19:57;-1.00;99.90
12588;DHT22;6359;51.450;7.346;2023-04-06T03:22:24;-1.10;99.90
12588;DHT22;6359;51.450;7.346;2023-04-06T03:24:53;-1.00;99.90
12588;DHT22;6359;51.450;7.346;2023-04-06T03:27:20;-1.00;99.90
12588;DHT22;6359;51.450;7.346;2023-04-06T03:29:47;-0.90;99.90
12588;DHT22;6359;51.450;7.346;2023-04-06T03:32:14;-0.90;99.90
12588;DHT22;6359;51.450;7.346;2023-04-06T03:34:41;-0.90;99.90
12588;DHT22;6359;51.450;7.346;2023-04-06T03:37:08;-0.90;99.90
12588;DHT22;6359;51.450;7.346;2023-04-06T03:39:36;-0.90;99.90
12588;DHT22;6359;51.450;7.346;2023-04-06T03:42:04;-1.00;99.90
12588;DHT22;6359;51.450;7.346;2023-04-06T03:44:31;-1.00;99.90
12588;DHT22;6359;51.450;7.346;2023-04-06T03:46:59;-1.00;99.90
12588;DHT22;6359;51.450;7.346;2023-04-06T03:49:26;-1.00;99.90
12588;DHT22;6359;51.450;7.346;2023-04-06T03:51:53;-0.90;99.90
12588;DHT22;6359;51.450;7.346;2023-04-06T03:54:20;-1.00;99.90
12588;DHT22;6359;51.450;7.346;2023-04-06T03:56:48;-1.00;99.90
12588;DHT22;6359;51.450;7.346;2023-04-06T03:59:17;-1.00;99.90
12588;DHT22;6359;51.450;7.346;2023-04-06T04:01:44;-1.00;99.90
12588;DHT22;6359;51.450;7.346;2023-04-06T04:04:11;-1.00;99.90
12588;DHT22;6359;51.450;7.346;2023-04-06T04:06:38;-1.10;99.90
12588;DHT22;6359;51.450;7.346;2023-04-06T04:09:05;-1.10;99.90
12588;DHT22;6359;51.450;7.346;2023-04-06T04:11:32;-1.10;99.90
12588;DHT22;6359;51.450;7.346;2023-04-06T04:13:59;-1.10;99.90
12588;DHT22;6359;51.450;7.346;2023-04-06T04:16:28;-1.10;99.90
12588;DHT22;6359;51.450;7.346;2023-04-06T04:18:55;-1.10;99.90
12588;DHT22;6359;51.450;7.346;2023-04-06T04:21:23;-1.20;99.90
12588;DHT22;6359;51.450;7.346;2023-04-06T04:23:51;-1.30;99.90
12588;DHT22;6359;51.450;7.346;2023-04-06T04:26:19;-1.30;99.90
12588;DHT22;6359;51.450;7.346;2023-04-06T04:28:46;-1.20;99.90
12588;DHT22;6359;51.450;7.346;2023-04-06T04:31:13;-1.20;99.90
12588;DHT22;6359;51.450;7.346;2023-04-06T04:33:42;-1.20;99.90
12588;DHT22;6359;51.450;7.346;2023-04-06T04:36:09;-1.20;99.90
12588;DHT22;6359;51.450;7.346;2023-04-06T04:38:36;-1.40;99.90
12588;DHT22;6359;51.450;7.346;2023-04-06T04:41:03;-1.40;99.90
12588;DHT22;6359;51.450;7.346;2023-04-06T04:43:30;-1.50;99.90
12588;DHT22;6359;51.450;7.346;2023-04-06T04:45:58;-1.50;99.90
12588;DHT22;6359;51.450;7.346;2023-04-06T04:48:25;-1.60;99.90
12588;DHT22;6359;51.450;7.346;2023-04-06T04:50:53;-1.50;99.90
12588;DHT22;6359;51.450;7.346;2023-04-06T04:53:21;-1.50;99.90
12588;DHT22;6359;51.450;7.346;2023-04-06T04:55:48;-1.50;99.90
12588;DHT22;6359;51.450;7.346;2023-04-06T04:58:15;-1.50;99.90
12588;DHT22;6359;51.450;7.346;2023-04-06T05:00:44;-1.50;99.90
12588;DHT22;6359;51.450;7.346;2023-04-06T05:03:16;-1.50;99.90
12588;DHT22;6359;51.450;7.346;2023-04-06T05:05:45;-1.50;99.90
12588;DHT22;6359;51.450;7.346;2023-04-06T05:08:13;-1.50;99.90
12588;DHT22;6359;51.450;7.346;2023-04-06T05:10:40;-1.50;99.90
12588;DHT22;6359;51.450;7.346;2023-04-06T05:13:08;-1.50;99.90
12588;DHT22;6359;51.450;7.346;2023-04-06T05:15:35;-1.50;99.90
12588;DHT22;6359;51.450;7.346;2023-04-06T05:18:03;-1.40;99.90
12588;DHT22;6359;51.450;7.346;2023-04-06T05:20:31;-1.30;99.90
12588;DHT22;6359;51.450;7.346;2023-04-06T05:22:58;-1.30;99.90
12588;DHT22;6359;51.450;7.346;2023-04-06T05:25:27;-1.30;99.90
12588;DHT22;6359;51.450;7.346;2023-04-06T05:27:54;-1.20;99.90
12588;DHT22;6359;51.450;7.346;2023-04-06T05:30:22;-1.10;99.90
12588;DHT22;6359;51.450;7.346;2023-04-06T05:32:49;-1.00;99.90
12588;DHT22;6359;51.450;7.346;2023-04-06T05:35:16;-1.00;99.90
12588;DHT22;6359;51.450;7.346;2023-04-06T05:37:44;-0.90;99.90
12588;DHT22;6359;51.450;7.346;2023-04-06T05:40:11;-0.80;99.90
12588;DHT22;6359;51.450;7.346;2023-04-06T05:42:40;-0.60;99.90
12588;DHT22;6359;51.450;7.346;2023-04-06T05:45:09;-0.50;99.90
12588;DHT22;6359;51.450;7.346;2023-04-06T05:47:42;-0.40;99.90
12588;DHT22;6359;51.450;7.346;2023-04-06T05:50:09;-0.20;99.90
12588;DHT22;6359;51.450;7.346;2023-04-06T05:52:36;-0.20;99.90
12588;DHT22;6359;51.450;7.346;2023-04-06T05:55:04;0.00;99.90
12588;DHT22;6359;51.450;7.346;2023-04-06T05:57:31;0.20;99.90
12588;DHT22;6359;51.450;7.346;2023-04-06T06:00:00;0.30;99.90
12588;DHT22;6359;51.450;7.346;2023-04-06T06:02:30;0.40;99.90
12588;DHT22;6359;51.450;7.346;2023-04-06T06:04:57;0.60;99.90
12588;DHT22;6359;51.450;7.346;2023-04-06T06:07:25;0.70;99.90
12588;DHT22;6359;51.450;7.346;2023-04-06T06:09:52;0.80;99.90
12588;DHT22;6359;51.450;7.346;2023-04-06T06:12:19;1.00;99.90
12588;DHT22;6359;51.450;7.346;2023-04-06T06:14:46;1.20;99.90
12588;DHT22;6359;51.450;7.346;2023-04-06T06:17:15;1.40;99.90
12588;DHT22;6359;51.450;7.346;2023-04-06T06:19:42;1.70;99.90
12588;DHT22;6359;51.450;7.346;2023-04-06T06:22:09;2.00;99.90
12588;DHT22;6359;51.450;7.346;2023-04-06T06:24:36;2.50;99.90
12588;DHT22;6359;51.450;7.346;2023-04-06T06:27:03;2.90;99.90
12588;DHT22;6359;51.450;7.346;2023-04-06T06:29:30;3.30;99.90
12588;DHT22;6359;51.450;7.346;2023-04-06T06:31:57;3.50;99.90
12588;DHT22;6359;51.450;7.346;2023-04-06T06:34:26;3.80;99.90
12588;DHT22;6359;51.450;7.346;2023-04-06T06:36:53;4.10;99.90
12588;DHT22;6359;51.450;7.346;2023-04-06T06:39:21;4.30;99.90
12588;DHT22;6359;51.450;7.346;2023-04-06T06:41:48;4.60;99.90
12588;DHT22;6359;51.450;7.346;2023-04-06T06:44:15;4.90;99.90
12588;DHT22;6359;51.450;7.346;2023-04-06T06:46:43;5.70;99.90
12588;DHT22;6359;51.450;7.346;2023-04-06T06:49:10;7.30;99.90
12588;DHT22;6359;51.450;7.346;2023-04-06T06:51:39;9.10;99.90
12588;DHT22;6359;51.450;7.346;2023-04-06T06:54:06;10.80;99.90
12588;DHT22;6359;51.450;7.346;2023-04-06T06:56:33;12.00;99.90
12588;DHT22;6359;51.450;7.346;2023-04-06T06:59:02;12.80;99.90
12588;DHT22;6359;51.450;7.346;2023-04-06T07:01:30;12.80;99.90
12588;DHT22;6359;51.450;7.346;2023-04-06T07:03:57;13.50;99.90
12588;DHT22;6359;51.450;7.346;2023-04-06T07:06:24;14.60;99.90
12588;DHT22;6359;51.450;7.346;2023-04-06T07:08:53;15.20;99.90
12588;DHT22;6359;51.450;7.346;2023-04-06T07:11:21;15.50;99.90
12588;DHT22;6359;51.450;7.346;2023-04-06T07:13:48;15.00;99.90
12588;DHT22;6359;51.450;7.346;2023-04-06T07:16:15;15.10;99.90
12588;DHT22;6359;51.450;7.346;2023-04-06T07:18:42;15.80;99.90
12588;DHT22;6359;51.450;7.346;2023-04-06T07:21:09;15.40;99.90
12588;DHT22;6359;51.450;7.346;2023-04-06T07:23:36;15.40;99.90
12588;DHT22;6359;51.450;7.346;2023-04-06T07:26:05;16.20;99.90
12588;DHT22;6359;51.450;7.346;2023-04-06T07:28:32;16.90;99.90
12588;DHT22;6359;51.450;7.346;2023-04-06T07:31:00;16.60;99.90
12588;DHT22;6359;51.450;7.346;2023-04-06T07:33:27;16.70;99.90
12588;DHT22;6359;51.450;7.346;2023-04-06T07:35:55;17.30;99.90
12588;DHT22;6359;51.450;7.346;2023-04-06T07:38:23;17.40;99.90
12588;DHT22;6359;51.450;7.346;2023-04-06T07:40:51;17.10;99.90
12588;DHT22;6359;51.450;7.346;2023-04-06T07:43:19;17.30;99.90
12588;DHT22;6359;51.450;7.346;2023-04-06T07:45:46;17.60;99.90
12588;DHT22;6359;51.450;7.346;2023-04-06T07:48:13;18.00;99.90
12588;DHT22;6359;51.450;7.346;2023-04-06T07:50:40;17.90;99.90
12588;DHT22;6359;51.450;7.346;2023-04-06T07:53:08;17.40;99.90
12588;DHT22;6359;51.450;7.346;2023-04-06T07:55:36;17.90;99.90
12588;DHT22;6359;51.450;7.346;2023-04-06T07:58:03;18.30;99.90
12588;DHT22;6359;51.450;7.346;2023-04-06T08:00:31;18.40;99.90
12588;DHT22;6359;51.450;7.346;2023-04-06T08:02:58;18.20;99.90
12588;DHT22;6359;51.450;7.346;2023-04-06T08:05:26;18.00;99.90
12588;DHT22;6359;51.450;7.346;2023-04-06T08:07:53;18.00;99.90
12588;DHT22;6359;51.450;7.346;2023-04-06T08:10:20;16.90;99.90
12588;DHT22;6359;51.450;7.346;2023-04-06T08:12:47;17.60;99.90
12588;DHT22;6359;51.450;7.346;2023-04-06T08:15:14;18.10;99.90
12588;DHT22;6359;51.450;7.346;2023-04-06T08:17:45;18.50;99.90
12588;DHT22;6359;51.450;7.346;2023-04-06T08:20:12;18.70;99.90
12588;DHT22;6359;51.450;7.346;2023-04-06T08:22:39;19.10;99.90
12588;DHT22;6359;51.450;7.346;2023-04-06T08:25:06;19.10;99.90
12588;DHT22;6359;51.450;7.346;2023-04-06T08:27:33;20.00;99.90
12588;DHT22;6359;51.450;7.346;2023-04-06T08:30:01;20.60;99.90
12588;DHT22;6359;51.450;7.346;2023-04-06T08:32:28;20.70;99.90
12588;DHT22;6359;51.450;7.346;2023-04-06T08:34:57;20.20;99.90
12588;DHT22;6359;51.450;7.346;2023-04-06T08:37:24;20.10;99.90
12588;DHT22;6359;51.450;7.346;2023-04-06T08:39:52;20.30;99.90
12588;DHT22;6359;51.450;7.346;2023-04-06T08:42:20;20.30;99.90
12588;DHT22;6359;51.450;7.346;2023-04-06T08:44:49;20.20;99.90
12588;DHT22;6359;51.450;7.346;2023-04-06T08:47:17;20.40;99.90
12588;DHT22;6359;51.450;7.346;2023-04-06T08:49:45;20.80;99.90
12588;DHT22;6359;51.450;7.346;2023-04-06T08:52:17;20.90;99.90
12588;DHT22;6359;51.450;7.346;2023-04-06T08:54:44;20.10;99.90
12588;DHT22;6359;51.450;7.346;2023-04-06T08:57:11;19.00;99.90
12588;DHT22;6359;51.450;7.346;2023-04-06T08:59:39;19.40;99.90
12588;DHT22;6359;51.450;7.346;2023-04-06T09:02:08;19.90;99.90
12588;DHT22;6359;51.450;7.346;2023-04-06T09:04:41;19.50;99.90
12588;DHT22;6359;51.450;7.346;2023-04-06T09:07:08;20.00;99.90
12588;DHT22;6359;51.450;7.346;2023-04-06T09:09:37;19.90;99.90
12588;DHT22;6359;51.450;7.346;2023-04-06T09:12:09;19.20;99.90
12588;DHT22;6359;51.450;7.346;2023-04-06T09:14:38;19.30;99.90
12588;DHT22;6359;51.450;7.346;2023-04-06T09:17:06;18.70;99.90
12588;DHT22;6359;51.450;7.346;2023-04-06T09:19:33;18.40;99.90
12588;DHT22;6359;51.450;7.346;2023-04-06T09:22:03;18.20;99.90
12588;DHT22;6359;51.450;7.346;2023-04-06T09:24:44;17.60;99.90
12588;DHT22;6359;51.450;7.346;2023-04-06T09:27:12;17.30;99.90
12588;DHT22;6359;51.450;7.346;2023-04-06T09:29:40;17.40;99.90
12588;DHT22;6359;51.450;7.346;2023-04-06T09:32:08;16.60;99.90
12588;DHT22;6359;51.450;7.346;2023-04-06T09:34:37;16.40;99.90
12588;DHT22;6359;51.450;7.346;2023-04-06T09:37:14;16.50;99.90
12588;DHT22;6359;51.450;7.346;2023-04-06T09:39:43;16.40;99.90
12588;DHT22;6359;51.450;7.346;2023-04-06T09:42:12;16.50;99.90
12588;DHT22;6359;51.450;7.346;2023-04-06T09:44:50;16.60;99.90
12588;DHT22;6359;51.450;7.346;2023-04-06T09:47:17;16.80;99.90
12588;DHT22;6359;51.450;7.346;2023-04-06T09:49:46;16.40;99.90
12588;DHT22;6359;51.450;7.346;2023-04-06T09:52:15;16.20;99.90
12588;DHT22;6359;51.450;7.346;2023-04-06T09:54:46;16.30;99.90
12588;DHT22;6359;51.450;7.346;2023-04-06T09:57:23;15.80;99.90
12588;DHT22;6359;51.450;7.346;2023-04-06T09:59:57;15.70;99.90
12588;DHT22;6359;51.450;7.346;2023-04-06T10:02:30;15.60;99.90
12588;DHT22;6359;51.450;7.346;2023-04-06T10:05:05;15.70;99.90
12588;DHT22;6359;51.450;7.346;2023-04-06T10:07:33;15.70;99.90
12588;DHT22;6359;51.450;7.346;2023-04-06T10:10:02;15.60;99.90
12588;DHT22;6359;51.450;7.346;2023-04-06T10:12:30;15.70;99.90
12588;DHT22;6359;51.450;7.346;2023-04-06T10:14:58;15.80;99.90
12588;DHT22;6359;51.450;7.346;2023-04-06T10:17:25;15.80;99.90
12588;DHT22;6359;51.450;7.346;2023-04-06T10:19:55;15.70;99.90
12588;DHT22;6359;51.450;7.346;2023-04-06T10:22:32;15.90;99.90
12588;DHT22;6359;51.450;7.346;2023-04-06T10:25:03;16.30;99.90
12588;DHT22;6359;51.450;7.346;2023-04-06T10:27:31;16.50;99.90
12588;DHT22;6359;51.450;7.346;2023-04-06T10:30:04;16.60;99.90
12588;DHT22;6359;51.450;7.346;2023-04-06T10:32:35;16.10;99.90
12588;DHT22;6359;51.450;7.346;2023-04-06T10:35:07;16.80;99.90
12588;DHT22;6359;51.450;7.346;2023-04-06T10:37:46;17.20;99.90
12588;DHT22;6359;51.450;7.346;2023-04-06T10:40:25;17.70;99.90
12588;DHT22;6359;51.450;7.346;2023-04-06T10:42:54;18.60;99.90
12588;DHT22;6359;51.450;7.346;2023-04-06T10:45:22;19.20;99.90
12588;DHT22;6359;51.450;7.346;2023-04-06T10:47:51;19.30;99.90
12588;DHT22;6359;51.450;7.346;2023-04-06T10:50:19;19.30;99.90
12588;DHT22;6359;51.450;7.346;2023-04-06T10:52:58;18.90;99.90
12588;DHT22;6359;51.450;7.346;2023-04-06T10:55:27;18.90;99.90
12588;DHT22;6359;51.450;7.346;2023-04-06T10:57:55;18.50;99.90
12588;DHT22;6359;51.450;7.346;2023-04-06T11:00:23;18.00;99.90
12588;DHT22;6359;51.450;7.346;2023-04-06T11:02:50;17.40;99.90
12588;DHT22;6359;51.450;7.346;2023-04-06T11:05:18;17.10;99.90
12588;DHT22;6359;51.450;7.346;2023-04-06T11:07:45;16.90;99.90
12588;DHT22;6359;51.450;7.346;2023-04-06T11:10:21;16.80;99.90
12588;DHT22;6359;51.450;7.346;2023-04-06T11:12:53;17.10;99.90
12588;DHT22;6359;51.450;7.346;2023-04-06T11:15:21;16.90;99.90
12588;DHT22;6359;51.450;7.346;2023-04-06T11:17:49;16.60;99.90
12588;DHT22;6359;51.450;7.346;2023-04-06T11:20:16;16.50;99.90
12588;DHT22;6359;51.450;7.346;2023-04-06T11:22:49;16.10;99.90
12588;DHT22;6359;51.450;7.346;2023-04-06T11:25:16;16.10;99.90
12588;DHT22;6359;51.450;7.346;2023-04-06T11:27:44;16.30;99.90
12588;DHT22;6359;51.450;7.346;2023-04-06T11:30:13;16.60;99.90
12588;DHT22;6359;51.450;7.346;2023-04-06T11:32:41;16.90;99.90
12588;DHT22;6359;51.450;7.346;2023-04-06T11:35:11;16.70;99.90
12588;DHT22;6359;51.450;7.346;2023-04-06T11:37:39;16.90;99.90
12588;DHT22;6359;51.450;7.346;2023-04-06T11:40:08;16.80;99.90
12588;DHT22;6359;51.450;7.346;2023-04-06T11:42:36;16.50;99.90
12588;DHT22;6359;51.450;7.346;2023-04-06T11:45:04;16.80;99.90
12588;DHT22;6359;51.450;7.346;2023-04-06T11:47:36;16.50;99.90
12588;DHT22;6359;51.450;7.346;2023-04-06T11:50:08;16.30;99.90
12588;DHT22;6359;51.450;7.346;2023-04-06T11:52:36;16.60;99.90
12588;DHT22;6359;51.450;7.346;2023-04-06T11:55:12;16.70;99.90
12588;DHT22;6359;51.450;7.346;2023-04-06T11:57:40;16.70;99.90
12588;DHT22;6359;51.450;7.346;2023-04-06T12:00:10;16.50;99.90
12588;DHT22;6359;51.450;7.346;2023-04-06T12:02:39;16.60;99.90
12588;DHT22;6359;51.450;7.346;2023-04-06T12:05:07;16.60;99.90
12588;DHT22;6359;51.450;7.346;2023-04-06T12:07:34;16.60;99.90
12588;DHT22;6359;51.450;7.346;2023-04-06T12:10:02;16.20;99.90
12588;DHT22;6359;51.450;7.346;2023-04-06T12:12:29;16.40;99.90
12588;DHT22;6359;51.450;7.346;2023-04-06T12:14:57;16.00;99.90
12588;DHT22;6359;51.450;7.346;2023-04-06T12:17:24;15.90;99.90
12588;DHT22;6359;51.450;7.346;2023-04-06T12:19:53;16.00;99.90
12588;DHT22;6359;51.450;7.346;2023-04-06T12:22:20;16.10;99.90
12588;DHT22;6359;51.450;7.346;2023-04-06T12:24:47;16.20;99.90
12588;DHT22;6359;51.450;7.346;2023-04-06T12:27:14;16.10;99.90
12588;DHT22;6359;51.450;7.346;2023-04-06T12:29:42;15.80;99.90
12588;DHT22;6359;51.450;7.346;2023-04-06T12:32:09;15.70;99.90
12588;DHT22;6359;51.450;7.346;2023-04-06T12:34:37;15.60;99.90
12588;DHT22;6359;51.450;7.346;2023-04-06T12:37:06;15.60;99.90
12588;DHT22;6359;51.450;7.346;2023-04-06T12:39:33;15.80;99.90
12588;DHT22;6359;51.450;7.346;2023-04-06T12:42:01;15.50;99.90
12588;DHT22;6359;51.450;7.346;2023-04-06T12:44:28;15.40;99.90
12588;DHT22;6359;51.450;7.346;2023-04-06T12:46:55;15.50;99.90
12588;DHT22;6359;51.450;7.346;2023-04-06T12:49:22;15.60;99.90
12588;DHT22;6359;51.450;7.346;2023-04-06T12:51:50;15.70;99.90
12588;DHT22;6359;51.450;7.346;2023-04-06T12:54:18;15.50;99.90
12588;DHT22;6359;51.450;7.346;2023-04-06T12:56:45;15.90;99.90
12588;DHT22;6359;51.450;7.346;2023-04-06T12:59:13;15.80;99.90
12588;DHT22;6359;51.450;7.346;2023-04-06T13:01:40;15.80;99.90
12588;DHT22;6359;51.450;7.346;2023-04-06T13:04:07;15.60;99.90
12588;DHT22;6359;51.450;7.346;2023-04-06T13:06:34;15.60;99.90
12588;DHT22;6359;51.450;7.346;2023-04-06T13:09:01;15.70;99.90
12588;DHT22;6359;51.450;7.346;2023-04-06T13:11:31;15.70;99.90
12588;DHT22;6359;51.450;7.346;2023-04-06T13:13:58;15.90;99.90
12588;DHT22;6359;51.450;7.346;2023-04-06T13:16:25;15.90;99.90
12588;DHT22;6359;51.450;7.346;2023-04-06T13:18:52;15.70;99.90
12588;DHT22;6359;51.450;7.346;2023-04-06T13:21:20;15.70;99.90
12588;DHT22;6359;51.450;7.346;2023-04-06T13:23:47;15.60;99.90
12588;DHT22;6359;51.450;7.346;2023-04-06T13:26:14;15.40;99.90
12588;DHT22;6359;51.450;7.346;2023-04-06T13:28:43;15.30;99.90
12588;DHT22;6359;51.450;7.346;2023-04-06T13:31:11;15.40;99.90
12588;DHT22;6359;51.450;7.346;2023-04-06T13:33:38;15.10;99.90
12588;DHT22;6359;51.450;7.346;2023-04-06T13:36:07;14.60;99.90
12588;DHT22;6359;51.450;7.346;2023-04-06T13:38:34;14.40;99.90
12588;DHT22;6359;51.450;7.346;2023-04-06T13:41:04;14.30;99.90
12588;DHT22;6359;51.450;7.346;2023-04-06T13:43:31;14.40;99.90
12588;DHT22;6359;51.450;7.346;2023-04-06T13:46:00;14.30;99.90
12588;DHT22;6359;51.450;7.346;2023-04-06T13:48:27;14.30;99.90
12588;DHT22;6359;51.450;7.346;2023-04-06T13:50:54;14.30;99.90
12588;DHT22;6359;51.450;7.346;2023-04-06T13:53:21;14.40;99.90
12588;DHT22;6359;51.450;7.346;2023-04-06T13:55:55;14.30;99.90
12588;DHT22;6359;51.450;7.346;2023-04-06T13:58:22;14.30;99.90
12588;DHT22;6359;51.450;7.346;2023-04-06T14:00:49;14.00;99.90
12588;DHT22;6359;51.450;7.346;2023-04-06T14:03:17;13.80;99.90
12588;DHT22;6359;51.450;7.346;2023-04-06T14:05:45;13.60;99.90
12588;DHT22;6359;51.450;7.346;2023-04-06T14:08:12;13.60;99.90
12588;DHT22;6359;51.450;7.346;2023-04-06T14:10:39;13.70;99.90
12588;DHT22;6359;51.450;7.346;2023-04-06T14:13:07;13.70;99.90
12588;DHT22;6359;51.450;7.346;2023-04-06T14:15:34;13.60;99.90
12588;DHT22;6359;51.450;7.346;2023-04-06T14:18:01;13.50;99.90
12588;DHT22;6359;51.450;7.346;2023-04-06T14:20:30;13.40;99.90
12588;DHT22;6359;51.450;7.346;2023-04-06T14:22:59;13.30;99.90
12588;DHT22;6359;51.450;7.346;2023-04-06T14:25:26;13.30;99.90
12588;DHT22;6359;51.450;7.346;2023-04-06T14:27:54;13.30;99.90
12588;DHT22;6359;51.450;7.346;2023-04-06T14:30:20;13.30;99.90
12588;DHT22;6359;51.450;7.346;2023-04-06T14:32:48;13.30;99.90
12588;DHT22;6359;51.450;7.346;2023-04-06T14:35:15;13.30;99.90
12588;DHT22;6359;51.450;7.346;2023-04-06T14:37:43;13.10;99.90
12588;DHT22;6359;51.450;7.346;2023-04-06T14:40:11;13.00;99.90
12588;DHT22;6359;51.450;7.346;2023-04-06T14:42:39;12.90;99.90
12588;DHT22;6359;51.450;7.346;2023-04-06T14:45:06;12.90;99.90
12588;DHT22;6359;51.450;7.346;2023-04-06T14:47:33;12.90;99.90
12588;DHT22;6359;51.450;7.346;2023-04-06T14:50:00;12.90;99.90
12588;DHT22;6359;51.450;7.346;2023-04-06T14:52:27;13.00;99.90
12588;DHT22;6359;51.450;7.346;2023-04-06T14:54:56;12.90;99.90
12588;DHT22;6359;51.450;7.346;2023-04-06T14:57:23;12.70;99.90
12588;DHT22;6359;51.450;7.346;2023-04-06T14:59:53;12.50;99.90
12588;DHT22;6359;51.450;7.346;2023-04-06T15:02:20;12.50;99.90
12588;DHT22;6359;51.450;7.346;2023-04-06T15:04:47;12.50;99.90
12588;DHT22;6359;51.450;7.346;2023-04-06T15:07:14;12.50;99.90
12588;DHT22;6359;51.450;7.346;2023-04-06T15:09:42;12.40;99.90
12588;DHT22;6359;51.450;7.346;2023-04-06T15:12:10;12.30;99.90
12588;DHT22;6359;51.450;7.346;2023-04-06T15:14:37;12.20;99.90
12588;DHT22;6359;51.450;7.346;2023-04-06T15:17:04;12.20;99.90
12588;DHT22;6359;51.450;7.346;2023-04-06T15:19:31;12.20;99.90
12588;DHT22;6359;51.450;7.346;2023-04-06T15:21:58;12.10;99.90
12588;DHT22;6359;51.450;7.346;2023-04-06T15:24:25;12.10;99.90
12588;DHT22;6359;51.450;7.346;2023-04-06T15:26:52;11.90;99.90
12588;DHT22;6359;51.450;7.346;2023-04-06T15:29:21;11.90;99.90
12588;DHT22;6359;51.450;7.346;2023-04-06T15:31:48;11.90;99.90
12588;DHT22;6359;51.450;7.346;2023-04-06T15:34:15;11.70;99.90
12588;DHT22;6359;51.450;7.346;2023-04-06T15:36:42;11.60;99.90
12588;DHT22;6359;51.450;7.346;2023-04-06T15:39:11;11.60;99.90
12588;DHT22;6359;51.450;7.346;2023-04-06T15:41:39;11.70;99.90
12588;DHT22;6359;51.450;7.346;2023-04-06T15:44:06;11.50;99.90
12588;DHT22;6359;51.450;7.346;2023-04-06T15:46:34;11.40;99.90
12588;DHT22;6359;51.450;7.346;2023-04-06T15:49:01;11.20;99.90
12588;DHT22;6359;51.450;7.346;2023-04-06T15:51:28;11.20;99.90